Strensall, United Kingdom
Current Conditions -  °F | °C
As of 6:50 AM on Sunday 23 Nov 2014 (Local Time) from EGXU Reporting Station
Broken Clouds Broken Clouds  
Wind Chill: 46°   Ceiling: 3900
Heat Index: 46°   Visibility: 6mi
Dew Point: 43°   Wind: 2mph
Humidity: 87%   Direction: 290°WNW
Pressure: 30"   Gusts: NA
Location:  54.04°N, 1.04°W
Report Text: EGXU 230650Z AUTO 29002KT 9999 // BKN039/// 08/06 Q1016
Loading
Personal Weather Stations






























Interactive Weather Map New forecast layout! Learn more

10-Day Weather Forecast

Advertisements
Track Severe Weather on mobile